Aérodrome :
LOGIN :

S'inscrire | Disclaimer

   EN    FR    IT 

 










Légende :    VFR   VFR Marginal   IFR   IFR Intensif   IFR Très Intensif
Visi : 
Plafond : 
>= 8 km
>= 3000ft
5 à 8 km
1000 à 3000 ft
1500m à 5 km
500 à 1000 ft
800 à 1500m
200 à 500 ft
< 800m
< 200 ft
Symboles :   Orages  Brouillard  Fortes neiges  Fortes précipitations  Vent > 20 kt
SIGMETs :   Divers  Orages  Givrage  Turbulence  Onde Orograph.  Cendres Volcan.






- Altitude de l'aérodrome : 74 ft
- Code IATA : EIN


EHEH - Eindhoven

DERNIER METAR :
  • 280725Z AUTO 30004KT 260V330 2900 R03/2900D BR OVC027 03/03 Q0997 YLO BECMG 2000 BR MIFG TEMPO 0700 FG SCT001

METARs EXPIRÉS :
  • 280655Z AUTO 31003KT 220V330 3300 R03/P3000D BR OVC026 03/03 Q0996 YLO BECMG 2000 BR MIFG BKN030 TEMPO 0800 FG SCT001
  • 280646Z AUTO 31003KT 280V360 3700 BR BKN023 OVC026 03/03 Q0996 GRN BECMG 2000 BR MIFG BKN030 TEMPO 0800 FG SCT001
  • 280638Z AUTO 32003KT 3800 BR OVC022 03/03 Q0996 GRN BECMG 2000 BR MIFG BKN030 TEMPO 0800 FG SCT001
  • 280625Z AUTO VRB03KT 3100 R03/P3000N BR FEW006 SCT020 OVC024 03/02 Q0996 YLO TEMPO 2500 SCT005 BKN018 BECMG 7000 NSW SCT020
  • 280555Z AUTO 02003KT 4900 BR FEW005 BKN018 OVC021 03/03 Q0996 GRN BECMG 7000 NSW SCT020
  • 280541Z AUTO 02004KT 4600 BR FEW005 SCT006 BKN007 03/03 Q0996 YLO
  • 280525Z AUTO 01005KT 5000 BR FEW006 BKN007 BKN008 03/03 Q0996 GRN
  • 280517Z AUTO 01005KT 4600 BR FEW005 SCT007 BKN008 03/03 Q0996 GRN
  • 280512Z AUTO 01005KT 350V050 5000 BR FEW005 BKN007 BKN008 03/03 Q0995 GRN
  • 280455Z AUTO 01005KT 340V040 4300 BR FEW006 SCT007 BKN008 03/03 Q0995 REDZ GRN
  • 280443Z AUTO 36005KT 4000 BR FEW004 BKN006 BKN007 03/03 Q0995 YLO

TAF AMD TAF EHEH
Valide du 28 à 06h jusqu'au 29 à 12h UTC


280632Z 2806/2912 34005KT 3500 BR OVC025
BECMG 2806/2808 2000 BR MIFG BKN030
PROB40 2807/2810 0800 FG SCT001
BECMG 2811/2813 7000 NSW 30007KT
TEMPO 2812/2816 4000 SHRA SCT012 SCT015CB BKN025
PROB40
TEMPO 2812/2816 2500 SHRA RA SCT007 BKN012 SCT015CB
BECMG 2817/2821 3500 BR
BECMG 2902/2904 27008KT 9999 NSW
TEMPO 2908/2911 28008G18KT SCT012 BKN015



MET'MAP, la Météo Aéronautique d'un coup d'oeil ! - Copyright ORBIFLY Décembre 2007 - Disclaimer

ORBIFLY MET'MAP TEAM :

Programmation & Développement : Alexandra Zaïnal
Sur une idée originale de : Baudouin d'Aumeries
Assistance à la programmation : Marc-Olivier Méhu
Soutien technique & logistique : Manuel Goepfert

Contact : metmap@orbifly.com




SOURCES & CREDITS :

   NOAA